sensor_id;sensor_type;location;lat;lon;timestamp;pressure;altitude;pressure_sealevel;temperature;humidity
18988;BME280;5494;51.796;10.952;2023-01-29T00:00:04;100121.56;;;-2.78;100.00
18988;BME280;5494;51.796;10.952;2023-01-29T00:02:40;100115.66;;;-2.75;100.00
18988;BME280;5494;51.796;10.952;2023-01-29T00:05:08;100116.78;;;-2.64;100.00
18988;BME280;5494;51.796;10.952;2023-01-29T00:07:53;100118.56;;;-2.58;100.00
18988;BME280;5494;51.796;10.952;2023-01-29T00:10:25;100106.75;;;-2.55;100.00
18988;BME280;5494;51.796;10.952;2023-01-29T00:12:53;100107.72;;;-2.48;100.00
18988;BME280;5494;51.796;10.952;2023-01-29T00:15:21;100113.69;;;-2.48;100.00
18988;BME280;5494;51.796;10.952;2023-01-29T00:17:50;100118.03;;;-2.44;100.00
18988;BME280;5494;51.796;10.952;2023-01-29T00:20:18;100109.56;;;-2.43;100.00
18988;BME280;5494;51.796;10.952;2023-01-29T00:22:46;100113.94;;;-2.35;100.00
18988;BME280;5494;51.796;10.952;2023-01-29T00:25:14;100102.06;;;-2.33;100.00
18988;BME280;5494;51.796;10.952;2023-01-29T00:27:42;100105.44;;;-2.34;100.00
18988;BME280;5494;51.796;10.952;2023-01-29T00:30:11;100094.47;;;-2.32;100.00
18988;BME280;5494;51.796;10.952;2023-01-29T00:32:40;100087.63;;;-2.34;100.00
18988;BME280;5494;51.796;10.952;2023-01-29T00:35:11;100079.88;;;-2.41;100.00
18988;BME280;5494;51.796;10.952;2023-01-29T00:37:38;100077.44;;;-2.36;100.00
18988;BME280;5494;51.796;10.952;2023-01-29T00:40:09;100076.59;;;-2.35;100.00
18988;BME280;5494;51.796;10.952;2023-01-29T00:42:37;100073.13;;;-2.39;100.00
18988;BME280;5494;51.796;10.952;2023-01-29T00:45:22;100077.41;;;-2.38;100.00
18988;BME280;5494;51.796;10.952;2023-01-29T00:47:50;100078.31;;;-2.35;100.00
18988;BME280;5494;51.796;10.952;2023-01-29T00:50:20;100077.47;;;-2.33;100.00
18988;BME280;5494;51.796;10.952;2023-01-29T00:52:47;100075.00;;;-2.30;100.00
18988;BME280;5494;51.796;10.952;2023-01-29T00:55:17;100074.22;;;-2.26;100.00
18988;BME280;5494;51.796;10.952;2023-01-29T00:57:46;100074.06;;;-2.33;100.00
18988;BME280;5494;51.796;10.952;2023-01-29T01:00:17;100070.69;;;-2.32;100.00
18988;BME280;5494;51.796;10.952;2023-01-29T01:02:45;100069.94;;;-2.28;100.00
18988;BME280;5494;51.796;10.952;2023-01-29T01:05:33;100061.34;;;-2.33;100.00
18988;BME280;5494;51.796;10.952;2023-01-29T01:08:02;100062.00;;;-2.45;100.00
18988;BME280;5494;51.796;10.952;2023-01-29T01:10:59;100064.09;;;-2.68;100.00
18988;BME280;5494;51.796;10.952;2023-01-29T01:13:27;100064.03;;;-2.71;100.00
18988;BME280;5494;51.796;10.952;2023-01-29T01:15:56;100063.97;;;-2.74;100.00
18988;BME280;5494;51.796;10.952;2023-01-29T01:18:24;100065.50;;;-2.82;100.00
18988;BME280;5494;51.796;10.952;2023-01-29T01:20:57;100059.63;;;-2.80;100.00
18988;BME280;5494;51.796;10.952;2023-01-29T01:23:26;100058.84;;;-2.77;100.00
18988;BME280;5494;51.796;10.952;2023-01-29T01:25:53;100062.56;;;-2.60;100.00
18988;BME280;5494;51.796;10.952;2023-01-29T01:28:21;100059.38;;;-2.50;100.00
18988;BME280;5494;51.796;10.952;2023-01-29T01:30:50;100064.59;;;-2.41;100.00
18988;BME280;5494;51.796;10.952;2023-01-29T01:33:18;100063.97;;;-2.30;100.00
18988;BME280;5494;51.796;10.952;2023-01-29T01:35:46;100049.69;;;-2.22;100.00
18988;BME280;5494;51.796;10.952;2023-01-29T01:38:16;100044.59;;;-2.22;100.00
18988;BME280;5494;51.796;10.952;2023-01-29T01:40:44;100044.69;;;-2.16;100.00
18988;BME280;5494;51.796;10.952;2023-01-29T01:43:12;100043.78;;;-2.20;100.00
18988;BME280;5494;51.796;10.952;2023-01-29T01:45:40;100037.03;;;-2.18;100.00
18988;BME280;5494;51.796;10.952;2023-01-29T01:48:17;100043.81;;;-2.18;100.00
18988;BME280;5494;51.796;10.952;2023-01-29T01:50:51;100039.72;;;-2.10;100.00
18988;BME280;5494;51.796;10.952;2023-01-29T01:53:25;100043.13;;;-2.10;100.00
18988;BME280;5494;51.796;10.952;2023-01-29T01:56:03;100048.13;;;-2.13;100.00
18988;BME280;5494;51.796;10.952;2023-01-29T01:58:37;100052.47;;;-2.09;100.00
18988;BME280;5494;51.796;10.952;2023-01-29T02:01:08;100049.00;;;-2.12;100.00
18988;BME280;5494;51.796;10.952;2023-01-29T02:03:41;100043.00;;;-2.14;100.00
18988;BME280;5494;51.796;10.952;2023-01-29T02:06:29;100038.91;;;-2.08;100.00
18988;BME280;5494;51.796;10.952;2023-01-29T02:09:22;100041.47;;;-2.06;100.00
18988;BME280;5494;51.796;10.952;2023-01-29T02:12:03;100029.69;;;-2.01;100.00
18988;BME280;5494;51.796;10.952;2023-01-29T02:14:34;100036.44;;;-2.03;100.00
18988;BME280;5494;51.796;10.952;2023-01-29T02:17:05;100037.25;;;-2.04;100.00
18988;BME280;5494;51.796;10.952;2023-01-29T02:19:46;100038.97;;;-2.03;100.00
18988;BME280;5494;51.796;10.952;2023-01-29T02:22:45;100029.59;;;-2.06;100.00
18988;BME280;5494;51.796;10.952;2023-01-29T02:25:58;100037.34;;;-1.98;100.00
18988;BME280;5494;51.796;10.952;2023-01-29T02:28:38;100040.56;;;-2.10;100.00
18988;BME280;5494;51.796;10.952;2023-01-29T02:31:28;100046.41;;;-2.15;100.00
18988;BME280;5494;51.796;10.952;2023-01-29T02:34:11;100042.88;;;-2.23;100.00
18988;BME280;5494;51.796;10.952;2023-01-29T02:36:49;100036.09;;;-2.23;100.00
18988;BME280;5494;51.796;10.952;2023-01-29T02:39:28;100038.72;;;-2.18;100.00
18988;BME280;5494;51.796;10.952;2023-01-29T02:42:12;100036.16;;;-2.18;100.00
18988;BME280;5494;51.796;10.952;2023-01-29T02:44:51;100036.13;;;-2.21;100.00
18988;BME280;5494;51.796;10.952;2023-01-29T02:47:31;100032.72;;;-2.20;100.00
18988;BME280;5494;51.796;10.952;2023-01-29T02:50:09;100037.06;;;-2.16;100.00
18988;BME280;5494;51.796;10.952;2023-01-29T02:52:50;100040.53;;;-2.11;100.00
18988;BME280;5494;51.796;10.952;2023-01-29T02:55:31;100038.91;;;-2.06;100.00
18988;BME280;5494;51.796;10.952;2023-01-29T02:58:08;100029.59;;;-2.06;100.00
18988;BME280;5494;51.796;10.952;2023-01-29T03:00:44;100040.66;;;-2.04;100.00
18988;BME280;5494;51.796;10.952;2023-01-29T03:03:17;100038.19;;;-1.99;100.00
18988;BME280;5494;51.796;10.952;2023-01-29T03:05:58;100040.81;;;-1.94;100.00
18988;BME280;5494;51.796;10.952;2023-01-29T03:08:33;100043.38;;;-1.93;100.00
18988;BME280;5494;51.796;10.952;2023-01-29T03:11:12;100038.34;;;-1.90;100.00
18988;BME280;5494;51.796;10.952;2023-01-29T03:13:46;100030.84;;;-1.81;100.00
18988;BME280;5494;51.796;10.952;2023-01-29T03:16:24;100029.91;;;-1.87;100.00
18988;BME280;5494;51.796;10.952;2023-01-29T03:19:01;100029.91;;;-1.86;100.00
18988;BME280;5494;51.796;10.952;2023-01-29T03:21:37;100032.31;;;-1.95;100.00
18988;BME280;5494;51.796;10.952;2023-01-29T03:24:37;100033.41;;;-1.81;100.00
18988;BME280;5494;51.796;10.952;2023-01-29T03:27:30;100032.56;;;-1.78;100.00
18988;BME280;5494;51.796;10.952;2023-01-29T03:30:19;100040.34;;;-1.71;100.00
18988;BME280;5494;51.796;10.952;2023-01-29T03:33:31;100053.03;;;-1.75;100.00
18988;BME280;5494;51.796;10.952;2023-01-29T03:36:10;100054.88;;;-1.67;100.00
18988;BME280;5494;51.796;10.952;2023-01-29T03:38:40;100057.41;;;-1.65;100.00
18988;BME280;5494;51.796;10.952;2023-01-29T03:41:20;100059.13;;;-1.64;100.00
18988;BME280;5494;51.796;10.952;2023-01-29T03:44:02;100060.06;;;-1.61;100.00
18988;BME280;5494;51.796;10.952;2023-01-29T03:46:40;100058.28;;;-1.65;100.00
18988;BME280;5494;51.796;10.952;2023-01-29T03:49:23;100052.16;;;-1.76;100.00
18988;BME280;5494;51.796;10.952;2023-01-29T03:52:03;100056.44;;;-1.75;100.00
18988;BME280;5494;51.796;10.952;2023-01-29T03:54:47;100047.16;;;-1.70;100.00
18988;BME280;5494;51.796;10.952;2023-01-29T03:57:30;100049.78;;;-1.64;100.00
18988;BME280;5494;51.796;10.952;2023-01-29T04:00:09;100048.94;;;-1.64;100.00
18988;BME280;5494;51.796;10.952;2023-01-29T04:03:04;100053.31;;;-1.55;100.00
18988;BME280;5494;51.796;10.952;2023-01-29T04:05:45;100050.91;;;-1.46;100.00
18988;BME280;5494;51.796;10.952;2023-01-29T04:08:27;100042.53;;;-1.39;100.00
18988;BME280;5494;51.796;10.952;2023-01-29T04:11:06;100032.34;;;-1.36;100.00
18988;BME280;5494;51.796;10.952;2023-01-29T04:13:38;100027.34;;;-1.30;100.00
18988;BME280;5494;51.796;10.952;2023-01-29T04:16:13;100027.50;;;-1.20;100.00
18988;BME280;5494;51.796;10.952;2023-01-29T04:18:53;100027.69;;;-1.03;100.00
18988;BME280;5494;51.796;10.952;2023-01-29T04:21:29;100016.63;;;-1.05;100.00
18988;BME280;5494;51.796;10.952;2023-01-29T04:23:59;100011.59;;;-0.99;100.00
18988;BME280;5494;51.796;10.952;2023-01-29T04:26:47;99998.88;;;-0.96;100.00
18988;BME280;5494;51.796;10.952;2023-01-29T04:29:33;99995.53;;;-0.92;100.00
18988;BME280;5494;51.796;10.952;2023-01-29T04:32:13;99982.88;;;-0.84;100.00
18988;BME280;5494;51.796;10.952;2023-01-29T04:34:59;99985.44;;;-0.81;100.00
18988;BME280;5494;51.796;10.952;2023-01-29T04:37:37;99980.41;;;-0.73;100.00
18988;BME280;5494;51.796;10.952;2023-01-29T04:40:18;99984.72;;;-0.69;100.00
18988;BME280;5494;51.796;10.952;2023-01-29T04:42:55;99966.88;;;-0.69;100.00
18988;BME280;5494;51.796;10.952;2023-01-29T04:45:38;99968.69;;;-0.58;100.00
18988;BME280;5494;51.796;10.952;2023-01-29T04:48:21;99962.84;;;-0.43;100.00
18988;BME280;5494;51.796;10.952;2023-01-29T04:50:57;99963.69;;;-0.44;100.00
18988;BME280;5494;51.796;10.952;2023-01-29T04:53:41;99966.28;;;-0.43;100.00
18988;BME280;5494;51.796;10.952;2023-01-29T04:56:21;99968.84;;;-0.38;100.00
18988;BME280;5494;51.796;10.952;2023-01-29T04:58:56;99957.78;;;-0.38;100.00
18988;BME280;5494;51.796;10.952;2023-01-29T05:01:29;99948.47;;;-0.32;100.00
18988;BME280;5494;51.796;10.952;2023-01-29T05:04:02;99944.25;;;-0.27;100.00
18988;BME280;5494;51.796;10.952;2023-01-29T05:06:34;99946.88;;;-0.18;100.00
18988;BME280;5494;51.796;10.952;2023-01-29T05:09:04;99938.34;;;-0.20;100.00
18988;BME280;5494;51.796;10.952;2023-01-29T05:11:34;99927.25;;;-0.25;100.00
18988;BME280;5494;51.796;10.952;2023-01-29T05:14:06;99917.03;;;-0.28;100.00
18988;BME280;5494;51.796;10.952;2023-01-29T05:16:42;99910.22;;;-0.26;100.00
18988;BME280;5494;51.796;10.952;2023-01-29T05:19:13;99899.97;;;-0.29;100.00
18988;BME280;5494;51.796;10.952;2023-01-29T05:21:45;99900.81;;;-0.30;100.00
18988;BME280;5494;51.796;10.952;2023-01-29T05:24:17;99907.59;;;-0.32;100.00
18988;BME280;5494;51.796;10.952;2023-01-29T05:26:49;99911.00;;;-0.36;100.00
18988;BME280;5494;51.796;10.952;2023-01-29T05:29:34;99908.44;;;-0.34;100.00
18988;BME280;5494;51.796;10.952;2023-01-29T05:32:02;99907.59;;;-0.35;100.00
18988;BME280;5494;51.796;10.952;2023-01-29T05:34:30;99904.97;;;-0.41;100.00
18988;BME280;5494;51.796;10.952;2023-01-29T05:36:58;99911.81;;;-0.42;100.00
18988;BME280;5494;51.796;10.952;2023-01-29T05:39:27;99912.69;;;-0.33;100.00
18988;BME280;5494;51.796;10.952;2023-01-29T05:41:55;99911.84;;;-0.35;100.00
18988;BME280;5494;51.796;10.952;2023-01-29T05:44:23;99916.22;;;-0.19;100.00
18988;BME280;5494;51.796;10.952;2023-01-29T05:46:51;99921.38;;;-0.15;100.00
18988;BME280;5494;51.796;10.952;2023-01-29T05:49:20;99921.47;;;-0.03;100.00
18988;BME280;5494;51.796;10.952;2023-01-29T05:51:48;99931.66;;;-0.06;100.00
18988;BME280;5494;51.796;10.952;2023-01-29T05:54:16;99936.78;;;0.00;100.00
18988;BME280;5494;51.796;10.952;2023-01-29T05:56:45;99934.22;;;-0.07;100.00
18988;BME280;5494;51.796;10.952;2023-01-29T05:59:17;99940.19;;;-0.04;100.00
18988;BME280;5494;51.796;10.952;2023-01-29T06:01:45;99945.25;;;-0.07;100.00
18988;BME280;5494;51.796;10.952;2023-01-29T06:04:13;99952.09;;;-0.09;100.00
18988;BME280;5494;51.796;10.952;2023-01-29T06:06:41;99946.94;;;-0.15;100.00
18988;BME280;5494;51.796;10.952;2023-01-29T06:09:10;99952.03;;;-0.15;100.00
18988;BME280;5494;51.796;10.952;2023-01-29T06:11:39;99954.59;;;-0.12;100.00
18988;BME280;5494;51.796;10.952;2023-01-29T06:14:08;99956.28;;;-0.15;100.00
18988;BME280;5494;51.796;10.952;2023-01-29T06:16:36;99953.75;;;-0.11;100.00
18988;BME280;5494;51.796;10.952;2023-01-29T06:19:04;99952.09;;;-0.06;100.00
18988;BME280;5494;51.796;10.952;2023-01-29T06:21:32;99953.81;;;-0.05;100.00
18988;BME280;5494;51.796;10.952;2023-01-29T06:24:00;99948.75;;;0.03;100.00
18988;BME280;5494;51.796;10.952;2023-01-29T06:26:28;99955.59;;;0.09;100.00
18988;BME280;5494;51.796;10.952;2023-01-29T06:28:56;99956.47;;;0.09;100.00
18988;BME280;5494;51.796;10.952;2023-01-29T06:31:25;99962.44;;;0.11;100.00
18988;BME280;5494;51.796;10.952;2023-01-29T06:34:05;99974.44;;;0.23;100.00
18988;BME280;5494;51.796;10.952;2023-01-29T06:36:34;99967.63;;;0.19;100.00
18988;BME280;5494;51.796;10.952;2023-01-29T06:39:02;99981.28;;;0.24;100.00
18988;BME280;5494;51.796;10.952;2023-01-29T06:41:30;99980.44;;;0.28;100.00
18988;BME280;5494;51.796;10.952;2023-01-29T06:44:01;99995.88;;;0.38;100.00
18988;BME280;5494;51.796;10.952;2023-01-29T06:46:30;99999.25;;;0.36;100.00
18988;BME280;5494;51.796;10.952;2023-01-29T06:48:59;100006.06;;;0.35;100.00
18988;BME280;5494;51.796;10.952;2023-01-29T06:51:27;99998.47;;;0.49;100.00
18988;BME280;5494;51.796;10.952;2023-01-29T06:53:54;100001.03;;;0.49;100.00
18988;BME280;5494;51.796;10.952;2023-01-29T06:56:23;99999.38;;;0.56;100.00
18988;BME280;5494;51.796;10.952;2023-01-29T06:58:51;99991.75;;;0.60;100.00
18988;BME280;5494;51.796;10.952;2023-01-29T07:01:19;100000.16;;;0.49;100.00
18988;BME280;5494;51.796;10.952;2023-01-29T07:04:03;100009.66;;;0.60;100.00
18988;BME280;5494;51.796;10.952;2023-01-29T07:06:32;99997.66;;;0.52;100.00
18988;BME280;5494;51.796;10.952;2023-01-29T07:09:00;99986.56;;;0.51;100.00
18988;BME280;5494;51.796;10.952;2023-01-29T07:11:28;99989.13;;;0.48;100.00
18988;BME280;5494;51.796;10.952;2023-01-29T07:13:55;99985.69;;;0.51;100.00
18988;BME280;5494;51.796;10.952;2023-01-29T07:16:23;99978.84;;;0.45;100.00
18988;BME280;5494;51.796;10.952;2023-01-29T07:18:52;99966.09;;;0.48;100.00
18988;BME280;5494;51.796;10.952;2023-01-29T07:21:21;99972.97;;;0.55;100.00
18988;BME280;5494;51.796;10.952;2023-01-29T07:23:49;99961.88;;;0.55;100.00
18988;BME280;5494;51.796;10.952;2023-01-29T07:26:20;99951.63;;;0.56;100.00
18988;BME280;5494;51.796;10.952;2023-01-29T07:28:48;99962.78;;;0.66;100.00
18988;BME280;5494;51.796;10.952;2023-01-29T07:31:16;99964.44;;;0.62;100.00
18988;BME280;5494;51.796;10.952;2023-01-29T07:33:44;99972.13;;;0.59;100.00
18988;BME280;5494;51.796;10.952;2023-01-29T07:36:13;99973.84;;;0.62;100.00
18988;BME280;5494;51.796;10.952;2023-01-29T07:38:42;99970.41;;;0.55;100.00
18988;BME280;5494;51.796;10.952;2023-01-29T07:41:10;99966.91;;;0.43;100.00
18988;BME280;5494;51.796;10.952;2023-01-29T07:43:42;99966.09;;;0.51;100.00
18988;BME280;5494;51.796;10.952;2023-01-29T07:46:10;99965.22;;;0.46;100.00
18988;BME280;5494;51.796;10.952;2023-01-29T07:48:38;99957.59;;;0.52;100.00
18988;BME280;5494;51.796;10.952;2023-01-29T07:51:06;99970.38;;;0.57;100.00
18988;BME280;5494;51.796;10.952;2023-01-29T07:53:34;99992.56;;;0.55;100.00
18988;BME280;5494;51.796;10.952;2023-01-29T07:56:04;100005.38;;;0.59;100.00
18988;BME280;5494;51.796;10.952;2023-01-29T07:58:32;100005.38;;;0.64;100.00
18988;BME280;5494;51.796;10.952;2023-01-29T08:01:06;99998.56;;;0.61;100.00
18988;BME280;5494;51.796;10.952;2023-01-29T08:03:35;100010.47;;;0.62;100.00
18988;BME280;5494;51.796;10.952;2023-01-29T08:06:04;100002.81;;;0.61;100.00
18988;BME280;5494;51.796;10.952;2023-01-29T08:08:32;99997.69;;;0.62;100.00
18988;BME280;5494;51.796;10.952;2023-01-29T08:11:01;99993.47;;;0.70;100.00
18988;BME280;5494;51.796;10.952;2023-01-29T08:13:31;99995.28;;;0.82;100.00
18988;BME280;5494;51.796;10.952;2023-01-29T08:16:01;99998.69;;;0.83;100.00
18988;BME280;5494;51.796;10.952;2023-01-29T08:18:29;99998.69;;;0.86;100.00
18988;BME280;5494;51.796;10.952;2023-01-29T08:20:59;99980.81;;;0.98;100.00
18988;BME280;5494;51.796;10.952;2023-01-29T08:23:27;99964.59;;;0.97;100.00
18988;BME280;5494;51.796;10.952;2023-01-29T08:25:55;99957.81;;;1.01;100.00
18988;BME280;5494;51.796;10.952;2023-01-29T08:28:23;99950.97;;;1.00;100.00
18988;BME280;5494;51.796;10.952;2023-01-29T08:30:52;99948.44;;;1.07;100.00
18988;BME280;5494;51.796;10.952;2023-01-29T08:33:21;99957.88;;;1.17;100.00
18988;BME280;5494;51.796;10.952;2023-01-29T08:36:05;99958.69;;;1.09;100.00
18988;BME280;5494;51.796;10.952;2023-01-29T08:38:34;99949.28;;;1.08;100.00
18988;BME280;5494;51.796;10.952;2023-01-29T08:41:03;99939.03;;;1.06;100.00
18988;BME280;5494;51.796;10.952;2023-01-29T08:43:31;99936.50;;;1.15;100.00
18988;BME280;5494;51.796;10.952;2023-01-29T08:46:02;99922.00;;;1.19;100.00
18988;BME280;5494;51.796;10.952;2023-01-29T08:48:31;99930.50;;;1.12;100.00
18988;BME280;5494;51.796;10.952;2023-01-29T08:51:00;99918.56;;;1.03;100.00
18988;BME280;5494;51.796;10.952;2023-01-29T08:53:28;99912.59;;;1.07;100.00
18988;BME280;5494;51.796;10.952;2023-01-29T08:55:56;99913.44;;;0.96;100.00
18988;BME280;5494;51.796;10.952;2023-01-29T08:58:24;99910.88;;;0.96;100.00
18988;BME280;5494;51.796;10.952;2023-01-29T09:00:52;99904.06;;;1.11;100.00
18988;BME280;5494;51.796;10.952;2023-01-29T09:03:22;99905.75;;;1.11;100.00
18988;BME280;5494;51.796;10.952;2023-01-29T09:05:49;99925.44;;;1.16;100.00
18988;BME280;5494;51.796;10.952;2023-01-29T09:08:17;99918.59;;;1.17;100.00
18988;BME280;5494;51.796;10.952;2023-01-29T09:10:45;99929.69;;;1.19;100.00
18988;BME280;5494;51.796;10.952;2023-01-29T09:13:13;99925.44;;;1.23;100.00
18988;BME280;5494;51.796;10.952;2023-01-29T09:15:42;99935.66;;;1.21;100.00
18988;BME280;5494;51.796;10.952;2023-01-29T09:18:09;99942.50;;;1.27;100.00
18988;BME280;5494;51.796;10.952;2023-01-29T09:20:39;99929.69;;;1.22;100.00
18988;BME280;5494;51.796;10.952;2023-01-29T09:23:08;99926.28;;;1.25;100.00
18988;BME280;5494;51.796;10.952;2023-01-29T09:25:37;99916.03;;;1.17;100.00
18988;BME280;5494;51.796;10.952;2023-01-29T09:28:05;99910.91;;;1.22;100.00
18988;BME280;5494;51.796;10.952;2023-01-29T09:30:33;99906.66;;;1.25;100.00
18988;BME280;5494;51.796;10.952;2023-01-29T09:33:04;99909.25;;;1.31;100.00
18988;BME280;5494;51.796;10.952;2023-01-29T09:35:33;99901.53;;;1.33;100.00
18988;BME280;5494;51.796;10.952;2023-01-29T09:38:02;99901.56;;;1.37;100.00
18988;BME280;5494;51.796;10.952;2023-01-29T09:40:39;99899.84;;;1.30;100.00
18988;BME280;5494;51.796;10.952;2023-01-29T09:43:15;99901.53;;;1.34;100.00
18988;BME280;5494;51.796;10.952;2023-01-29T09:45:52;99893.00;;;1.34;100.00
18988;BME280;5494;51.796;10.952;2023-01-29T09:48:26;99892.16;;;1.32;100.00
18988;BME280;5494;51.796;10.952;2023-01-29T09:50:59;99889.59;;;1.24;100.00
18988;BME280;5494;51.796;10.952;2023-01-29T09:53:39;99893.84;;;1.21;100.00
18988;BME280;5494;51.796;10.952;2023-01-29T09:56:15;99895.53;;;1.18;100.00
18988;BME280;5494;51.796;10.952;2023-01-29T09:58:47;99892.13;;;1.18;100.00
18988;BME280;5494;51.796;10.952;2023-01-29T10:01:20;99888.69;;;1.04;100.00
18988;BME280;5494;51.796;10.952;2023-01-29T10:04:18;99878.47;;;1.14;100.00
18988;BME280;5494;51.796;10.952;2023-01-29T10:07:11;99873.38;;;1.21;100.00
18988;BME280;5494;51.796;10.952;2023-01-29T10:10:06;99869.09;;;1.26;100.00
18988;BME280;5494;51.796;10.952;2023-01-29T10:12:54;99858.88;;;1.24;100.00
18988;BME280;5494;51.796;10.952;2023-01-29T10:15:39;99849.47;;;1.29;100.00
18988;BME280;5494;51.796;10.952;2023-01-29T10:18:40;99852.88;;;1.62;100.00
18988;BME280;5494;51.796;10.952;2023-01-29T10:21:29;99853.69;;;1.95;100.00
18988;BME280;5494;51.796;10.952;2023-01-29T10:24:13;99842.44;;;2.37;98.09
18988;BME280;5494;51.796;10.952;2023-01-29T10:26:47;99847.63;;;2.33;96.51
18988;BME280;5494;51.796;10.952;2023-01-29T10:29:18;99848.44;;;2.40;96.29
18988;BME280;5494;51.796;10.952;2023-01-29T10:31:54;99849.31;;;2.42;95.60
18988;BME280;5494;51.796;10.952;2023-01-29T10:34:29;99837.28;;;2.44;96.54
18988;BME280;5494;51.796;10.952;2023-01-29T10:37:11;99829.63;;;2.39;95.90
18988;BME280;5494;51.796;10.952;2023-01-29T10:39:41;99838.22;;;2.26;96.98
18988;BME280;5494;51.796;10.952;2023-01-29T10:42:25;99818.56;;;2.28;97.66
18988;BME280;5494;51.796;10.952;2023-01-29T10:45:22;99817.66;;;2.36;97.11
18988;BME280;5494;51.796;10.952;2023-01-29T10:48:20;99806.59;;;2.22;97.58
18988;BME280;5494;51.796;10.952;2023-01-29T10:51:07;99808.28;;;2.29;97.22
18988;BME280;5494;51.796;10.952;2023-01-29T10:53:52;99814.25;;;2.34;97.88
18988;BME280;5494;51.796;10.952;2023-01-29T10:56:47;99813.44;;;2.25;97.49
18988;BME280;5494;51.796;10.952;2023-01-29T10:59:36;99813.38;;;2.38;97.48
18988;BME280;5494;51.796;10.952;2023-01-29T11:02:15;99819.34;;;2.44;96.74
18988;BME280;5494;51.796;10.952;2023-01-29T11:04:45;99803.94;;;2.47;95.89
18988;BME280;5494;51.796;10.952;2023-01-29T11:07:17;99793.75;;;2.30;96.71
18988;BME280;5494;51.796;10.952;2023-01-29T11:09:55;99801.41;;;2.39;96.96
18988;BME280;5494;51.796;10.952;2023-01-29T11:12:28;99788.50;;;2.50;97.00
18988;BME280;5494;51.796;10.952;2023-01-29T11:15:04;99785.91;;;2.57;95.43
18988;BME280;5494;51.796;10.952;2023-01-29T11:17:33;99791.13;;;2.47;96.31
18988;BME280;5494;51.796;10.952;2023-01-29T11:20:25;99779.88;;;2.63;95.96
18988;BME280;5494;51.796;10.952;2023-01-29T11:22:53;99764.53;;;2.60;96.46
18988;BME280;5494;51.796;10.952;2023-01-29T11:25:22;99761.09;;;2.58;96.28
18988;BME280;5494;51.796;10.952;2023-01-29T11:27:54;99767.94;;;2.60;96.17
18988;BME280;5494;51.796;10.952;2023-01-29T11:30:27;99761.03;;;2.70;97.04
18988;BME280;5494;51.796;10.952;2023-01-29T11:33:06;99763.63;;;2.68;96.37
18988;BME280;5494;51.796;10.952;2023-01-29T11:35:36;99765.25;;;2.80;96.03
18988;BME280;5494;51.796;10.952;2023-01-29T11:38:18;99766.97;;;2.78;95.35
18988;BME280;5494;51.796;10.952;2023-01-29T11:40:48;99768.66;;;2.77;95.60
18988;BME280;5494;51.796;10.952;2023-01-29T11:43:27;99756.66;;;2.86;95.72
18988;BME280;5494;51.796;10.952;2023-01-29T11:46:01;99749.72;;;2.97;96.41
18988;BME280;5494;51.796;10.952;2023-01-29T11:48:41;99745.50;;;2.90;96.43
18988;BME280;5494;51.796;10.952;2023-01-29T11:51:19;99744.59;;;2.94;96.50
18988;BME280;5494;51.796;10.952;2023-01-29T11:53:52;99738.66;;;2.90;95.51
18988;BME280;5494;51.796;10.952;2023-01-29T11:56:26;99742.94;;;2.87;95.57
18988;BME280;5494;51.796;10.952;2023-01-29T11:58:57;99743.03;;;2.76;96.64
18988;BME280;5494;51.796;10.952;2023-01-29T12:01:33;99736.25;;;2.63;96.95
18988;BME280;5494;51.796;10.952;2023-01-29T12:04:14;99735.34;;;2.73;97.95
18988;BME280;5494;51.796;10.952;2023-01-29T12:06:46;99731.81;;;2.86;97.04
18988;BME280;5494;51.796;10.952;2023-01-29T12:09:20;99724.13;;;2.85;97.78
18988;BME280;5494;51.796;10.952;2023-01-29T12:11:49;99714.72;;;2.85;97.61
18988;BME280;5494;51.796;10.952;2023-01-29T12:14:27;99712.09;;;2.91;98.09
18988;BME280;5494;51.796;10.952;2023-01-29T12:17:02;99704.31;;;3.03;97.17
18988;BME280;5494;51.796;10.952;2023-01-29T12:19:40;99701.03;;;2.86;96.87
18988;BME280;5494;51.796;10.952;2023-01-29T12:22:17;99703.47;;;3.00;97.66
18988;BME280;5494;51.796;10.952;2023-01-29T12:24:51;99691.44;;;3.06;97.16
18988;BME280;5494;51.796;10.952;2023-01-29T12:27:30;99678.63;;;3.02;96.98
18988;BME280;5494;51.796;10.952;2023-01-29T12:30:09;99675.34;;;2.85;97.39
18988;BME280;5494;51.796;10.952;2023-01-29T12:32:48;99672.78;;;2.85;97.63
18988;BME280;5494;51.796;10.952;2023-01-29T12:35:26;99674.47;;;2.89;98.48
18988;BME280;5494;51.796;10.952;2023-01-29T12:38:01;99661.59;;;2.95;97.56
18988;BME280;5494;51.796;10.952;2023-01-29T12:40:38;99653.03;;;2.94;97.48
18988;BME280;5494;51.796;10.952;2023-01-29T12:43:15;99658.03;;;3.06;97.64
18988;BME280;5494;51.796;10.952;2023-01-29T12:45:49;99657.09;;;3.18;95.99
18988;BME280;5494;51.796;10.952;2023-01-29T12:48:26;99646.81;;;3.16;94.67
18988;BME280;5494;51.796;10.952;2023-01-29T12:51:06;99638.22;;;3.21;94.93
18988;BME280;5494;51.796;10.952;2023-01-29T12:53:40;99637.50;;;3.06;94.86
18988;BME280;5494;51.796;10.952;2023-01-29T12:56:18;99622.16;;;3.02;95.33
18988;BME280;5494;51.796;10.952;2023-01-29T12:58:53;99623.72;;;3.16;95.14
18988;BME280;5494;51.796;10.952;2023-01-29T13:01:30;99621.13;;;3.16;94.56
18988;BME280;5494;51.796;10.952;2023-01-29T13:04:08;99615.16;;;3.14;95.01
18988;BME280;5494;51.796;10.952;2023-01-29T13:06:44;99607.44;;;3.17;93.79
18988;BME280;5494;51.796;10.952;2023-01-29T13:09:18;99619.66;;;2.91;93.88
18988;BME280;5494;51.796;10.952;2023-01-29T13:11:52;99625.69;;;2.90;96.13
18988;BME280;5494;51.796;10.952;2023-01-29T13:14:27;99626.47;;;2.97;95.10
18988;BME280;5494;51.796;10.952;2023-01-29T13:17:09;99623.03;;;2.98;94.79
18988;BME280;5494;51.796;10.952;2023-01-29T13:19:45;99623.94;;;2.92;95.69
18988;BME280;5494;51.796;10.952;2023-01-29T13:22:23;99627.22;;;3.06;94.94
18988;BME280;5494;51.796;10.952;2023-01-29T13:24:53;99632.41;;;3.03;94.65
18988;BME280;5494;51.796;10.952;2023-01-29T13:27:34;99630.75;;;2.96;94.94
18988;BME280;5494;51.796;10.952;2023-01-29T13:30:05;99636.78;;;2.94;95.11
18988;BME280;5494;51.796;10.952;2023-01-29T13:32:35;99637.63;;;2.91;95.44